sensor_id;sensor_type;location;lat;lon;timestamp;P1;durP1;ratioP1;P2;durP2;ratioP2
2474;SDS011;1248;48.694;10.160;2023-04-06T00:01:07;14.90;;;11.20;;
2474;SDS011;1248;48.694;10.160;2023-04-06T00:03:34;13.20;;;10.60;;
2474;SDS011;1248;48.694;10.160;2023-04-06T00:06:02;18.10;;;13.00;;
2474;SDS011;1248;48.694;10.160;2023-04-06T00:08:29;13.93;;;11.40;;
2474;SDS011;1248;48.694;10.160;2023-04-06T00:10:57;14.13;;;11.60;;
2474;SDS011;1248;48.694;10.160;2023-04-06T00:13:24;22.53;;;12.20;;
2474;SDS011;1248;48.694;10.160;2023-04-06T00:15:51;19.20;;;12.43;;
2474;SDS011;1248;48.694;10.160;2023-04-06T00:18:18;14.20;;;12.20;;
2474;SDS011;1248;48.694;10.160;2023-04-06T00:20:46;21.63;;;12.97;;
2474;SDS011;1248;48.694;10.160;2023-04-06T00:23:13;16.33;;;12.73;;
2474;SDS011;1248;48.694;10.160;2023-04-06T00:25:40;14.90;;;12.37;;
2474;SDS011;1248;48.694;10.160;2023-04-06T00:28:08;18.77;;;12.83;;
2474;SDS011;1248;48.694;10.160;2023-04-06T00:30:35;14.60;;;12.17;;
2474;SDS011;1248;48.694;10.160;2023-04-06T00:33:02;15.20;;;12.00;;
2474;SDS011;1248;48.694;10.160;2023-04-06T00:35:30;17.77;;;13.47;;
2474;SDS011;1248;48.694;10.160;2023-04-06T00:37:57;17.20;;;12.47;;
2474;SDS011;1248;48.694;10.160;2023-04-06T00:40:24;13.97;;;11.17;;
2474;SDS011;1248;48.694;10.160;2023-04-06T00:42:53;18.07;;;11.87;;
2474;SDS011;1248;48.694;10.160;2023-04-06T00:45:21;15.80;;;10.97;;
2474;SDS011;1248;48.694;10.160;2023-04-06T00:47:48;14.03;;;12.07;;
2474;SDS011;1248;48.694;10.160;2023-04-06T00:50:16;15.63;;;11.90;;
2474;SDS011;1248;48.694;10.160;2023-04-06T00:52:43;18.63;;;12.47;;
2474;SDS011;1248;48.694;10.160;2023-04-06T00:55:10;14.57;;;11.53;;
2474;SDS011;1248;48.694;10.160;2023-04-06T00:57:37;16.40;;;13.00;;
2474;SDS011;1248;48.694;10.160;2023-04-06T01:00:05;17.97;;;11.83;;
2474;SDS011;1248;48.694;10.160;2023-04-06T01:02:35;17.67;;;12.83;;
2474;SDS011;1248;48.694;10.160;2023-04-06T01:05:02;14.77;;;11.77;;
2474;SDS011;1248;48.694;10.160;2023-04-06T01:07:29;12.07;;;10.03;;
2474;SDS011;1248;48.694;10.160;2023-04-06T01:09:56;16.93;;;11.07;;
2474;SDS011;1248;48.694;10.160;2023-04-06T01:12:23;17.93;;;10.90;;
2474;SDS011;1248;48.694;10.160;2023-04-06T01:14:50;15.73;;;10.80;;
2474;SDS011;1248;48.694;10.160;2023-04-06T01:17:17;15.43;;;11.23;;
2474;SDS011;1248;48.694;10.160;2023-04-06T01:19:46;13.07;;;11.00;;
2474;SDS011;1248;48.694;10.160;2023-04-06T01:22:16;12.97;;;10.77;;
2474;SDS011;1248;48.694;10.160;2023-04-06T01:24:43;12.97;;;10.97;;
2474;SDS011;1248;48.694;10.160;2023-04-06T01:27:10;12.87;;;11.50;;
2474;SDS011;1248;48.694;10.160;2023-04-06T01:29:37;13.33;;;10.80;;
2474;SDS011;1248;48.694;10.160;2023-04-06T01:32:06;19.47;;;12.87;;
2474;SDS011;1248;48.694;10.160;2023-04-06T01:34:34;14.57;;;11.63;;
2474;SDS011;1248;48.694;10.160;2023-04-06T01:37:01;15.80;;;11.60;;
2474;SDS011;1248;48.694;10.160;2023-04-06T01:39:29;16.00;;;12.20;;
2474;SDS011;1248;48.694;10.160;2023-04-06T01:41:57;19.63;;;11.90;;
2474;SDS011;1248;48.694;10.160;2023-04-06T01:44:24;13.80;;;11.63;;
2474;SDS011;1248;48.694;10.160;2023-04-06T01:46:51;13.83;;;12.07;;
2474;SDS011;1248;48.694;10.160;2023-04-06T01:49:18;14.23;;;11.77;;
2474;SDS011;1248;48.694;10.160;2023-04-06T01:51:45;15.20;;;12.63;;
2474;SDS011;1248;48.694;10.160;2023-04-06T01:54:12;21.03;;;12.43;;
2474;SDS011;1248;48.694;10.160;2023-04-06T01:56:40;18.13;;;11.70;;
2474;SDS011;1248;48.694;10.160;2023-04-06T01:59:07;13.93;;;11.67;;
2474;SDS011;1248;48.694;10.160;2023-04-06T02:01:34;13.87;;;11.53;;
2474;SDS011;1248;48.694;10.160;2023-04-06T02:04:01;19.27;;;12.43;;
2474;SDS011;1248;48.694;10.160;2023-04-06T02:06:28;13.13;;;11.60;;
2474;SDS011;1248;48.694;10.160;2023-04-06T02:08:55;14.57;;;12.13;;
2474;SDS011;1248;48.694;10.160;2023-04-06T02:11:22;16.47;;;12.47;;
2474;SDS011;1248;48.694;10.160;2023-04-06T02:13:51;19.93;;;11.93;;
2474;SDS011;1248;48.694;10.160;2023-04-06T02:16:18;12.33;;;11.07;;
2474;SDS011;1248;48.694;10.160;2023-04-06T02:18:45;24.00;;;13.23;;
2474;SDS011;1248;48.694;10.160;2023-04-06T02:21:12;14.70;;;11.50;;
2474;SDS011;1248;48.694;10.160;2023-04-06T02:23:39;15.30;;;11.90;;
2474;SDS011;1248;48.694;10.160;2023-04-06T02:26:06;16.90;;;12.17;;
2474;SDS011;1248;48.694;10.160;2023-04-06T02:28:33;21.57;;;12.47;;
2474;SDS011;1248;48.694;10.160;2023-04-06T02:31:02;22.13;;;13.40;;
2474;SDS011;1248;48.694;10.160;2023-04-06T02:33:29;17.83;;;12.50;;
2474;SDS011;1248;48.694;10.160;2023-04-06T02:35:56;13.67;;;12.30;;
2474;SDS011;1248;48.694;10.160;2023-04-06T02:38:23;14.93;;;13.07;;
2474;SDS011;1248;48.694;10.160;2023-04-06T02:40:50;16.23;;;12.40;;
2474;SDS011;1248;48.694;10.160;2023-04-06T02:43:17;16.00;;;12.63;;
2474;SDS011;1248;48.694;10.160;2023-04-06T02:45:45;17.67;;;12.00;;
2474;SDS011;1248;48.694;10.160;2023-04-06T02:48:13;13.27;;;11.87;;
2474;SDS011;1248;48.694;10.160;2023-04-06T02:50:40;19.13;;;12.10;;
2474;SDS011;1248;48.694;10.160;2023-04-06T02:53:07;21.03;;;12.97;;
2474;SDS011;1248;48.694;10.160;2023-04-06T02:55:35;19.03;;;12.40;;
2474;SDS011;1248;48.694;10.160;2023-04-06T02:58:02;15.67;;;12.23;;
2474;SDS011;1248;48.694;10.160;2023-04-06T03:00:28;21.43;;;12.23;;
2474;SDS011;1248;48.694;10.160;2023-04-06T03:02:56;19.00;;;12.63;;
2474;SDS011;1248;48.694;10.160;2023-04-06T03:05:24;19.20;;;13.00;;
2474;SDS011;1248;48.694;10.160;2023-04-06T03:07:51;20.53;;;13.43;;
2474;SDS011;1248;48.694;10.160;2023-04-06T03:10:18;16.93;;;13.43;;
2474;SDS011;1248;48.694;10.160;2023-04-06T03:12:46;13.67;;;12.27;;
2474;SDS011;1248;48.694;10.160;2023-04-06T03:15:13;21.07;;;13.67;;
2474;SDS011;1248;48.694;10.160;2023-04-06T03:17:40;14.27;;;12.90;;
2474;SDS011;1248;48.694;10.160;2023-04-06T03:20:07;16.20;;;12.60;;
2474;SDS011;1248;48.694;10.160;2023-04-06T03:22:36;19.00;;;12.53;;
2474;SDS011;1248;48.694;10.160;2023-04-06T03:25:03;16.40;;;12.77;;
2474;SDS011;1248;48.694;10.160;2023-04-06T03:27:30;16.23;;;13.33;;
2474;SDS011;1248;48.694;10.160;2023-04-06T03:29:58;18.23;;;12.90;;
2474;SDS011;1248;48.694;10.160;2023-04-06T03:32:25;20.97;;;13.87;;
2474;SDS011;1248;48.694;10.160;2023-04-06T03:34:52;19.43;;;13.70;;
2474;SDS011;1248;48.694;10.160;2023-04-06T03:37:19;17.67;;;13.00;;
2474;SDS011;1248;48.694;10.160;2023-04-06T03:39:47;16.67;;;13.30;;
2474;SDS011;1248;48.694;10.160;2023-04-06T03:42:14;19.60;;;12.97;;
2474;SDS011;1248;48.694;10.160;2023-04-06T03:44:41;15.60;;;13.43;;
2474;SDS011;1248;48.694;10.160;2023-04-06T03:47:08;14.87;;;11.73;;
2474;SDS011;1248;48.694;10.160;2023-04-06T03:49:35;14.13;;;11.67;;
2474;SDS011;1248;48.694;10.160;2023-04-06T03:52:02;15.30;;;12.60;;
2474;SDS011;1248;48.694;10.160;2023-04-06T03:54:30;19.03;;;12.87;;
2474;SDS011;1248;48.694;10.160;2023-04-06T03:56:58;13.70;;;11.70;;
2474;SDS011;1248;48.694;10.160;2023-04-06T03:59:25;17.07;;;13.00;;
2474;SDS011;1248;48.694;10.160;2023-04-06T04:01:52;16.47;;;12.73;;
2474;SDS011;1248;48.694;10.160;2023-04-06T04:04:19;16.23;;;12.50;;
2474;SDS011;1248;48.694;10.160;2023-04-06T04:06:46;21.40;;;13.37;;
2474;SDS011;1248;48.694;10.160;2023-04-06T04:09:13;16.10;;;13.50;;
2474;SDS011;1248;48.694;10.160;2023-04-06T04:11:40;18.47;;;12.37;;
2474;SDS011;1248;48.694;10.160;2023-04-06T04:14:09;20.87;;;14.67;;
2474;SDS011;1248;48.694;10.160;2023-04-06T04:16:36;22.33;;;14.33;;
2474;SDS011;1248;48.694;10.160;2023-04-06T04:19:04;18.03;;;14.40;;
2474;SDS011;1248;48.694;10.160;2023-04-06T04:21:31;14.60;;;13.07;;
2474;SDS011;1248;48.694;10.160;2023-04-06T04:23:59;16.93;;;15.20;;
2474;SDS011;1248;48.694;10.160;2023-04-06T04:26:26;22.03;;;13.80;;
2474;SDS011;1248;48.694;10.160;2023-04-06T04:28:53;22.87;;;14.53;;
2474;SDS011;1248;48.694;10.160;2023-04-06T04:31:21;28.57;;;17.63;;
2474;SDS011;1248;48.694;10.160;2023-04-06T04:33:48;22.13;;;14.10;;
2474;SDS011;1248;48.694;10.160;2023-04-06T04:36:15;23.10;;;15.60;;
2474;SDS011;1248;48.694;10.160;2023-04-06T04:38:42;21.37;;;13.87;;
2474;SDS011;1248;48.694;10.160;2023-04-06T04:41:09;20.33;;;13.13;;
2474;SDS011;1248;48.694;10.160;2023-04-06T04:43:36;19.63;;;13.27;;
2474;SDS011;1248;48.694;10.160;2023-04-06T04:46:03;17.20;;;13.00;;
2474;SDS011;1248;48.694;10.160;2023-04-06T04:48:32;27.53;;;15.50;;
2474;SDS011;1248;48.694;10.160;2023-04-06T04:50:59;21.97;;;13.97;;
2474;SDS011;1248;48.694;10.160;2023-04-06T04:53:26;17.60;;;12.70;;
2474;SDS011;1248;48.694;10.160;2023-04-06T04:55:53;20.30;;;14.70;;
2474;SDS011;1248;48.694;10.160;2023-04-06T04:58:20;20.60;;;14.40;;
2474;SDS011;1248;48.694;10.160;2023-04-06T05:00:47;15.00;;;13.17;;
2474;SDS011;1248;48.694;10.160;2023-04-06T05:03:16;26.13;;;14.63;;
2474;SDS011;1248;48.694;10.160;2023-04-06T05:05:47;18.63;;;12.37;;
2474;SDS011;1248;48.694;10.160;2023-04-06T05:08:14;25.67;;;16.97;;
2474;SDS011;1248;48.694;10.160;2023-04-06T05:10:42;30.83;;;14.23;;
2474;SDS011;1248;48.694;10.160;2023-04-06T05:13:09;23.83;;;14.13;;
2474;SDS011;1248;48.694;10.160;2023-04-06T05:15:37;19.80;;;14.47;;
2474;SDS011;1248;48.694;10.160;2023-04-06T05:18:05;20.80;;;15.23;;
2474;SDS011;1248;48.694;10.160;2023-04-06T05:20:33;23.30;;;14.83;;
2474;SDS011;1248;48.694;10.160;2023-04-06T05:23:01;21.53;;;15.60;;
2474;SDS011;1248;48.694;10.160;2023-04-06T05:25:28;20.90;;;15.70;;
2474;SDS011;1248;48.694;10.160;2023-04-06T05:27:55;18.00;;;14.07;;
2474;SDS011;1248;48.694;10.160;2023-04-06T05:30:23;23.17;;;16.00;;
2474;SDS011;1248;48.694;10.160;2023-04-06T05:32:50;18.53;;;13.50;;
2474;SDS011;1248;48.694;10.160;2023-04-06T05:35:17;22.20;;;14.97;;
2474;SDS011;1248;48.694;10.160;2023-04-06T05:37:44;20.30;;;14.17;;
2474;SDS011;1248;48.694;10.160;2023-04-06T05:40:12;22.80;;;15.10;;
2474;SDS011;1248;48.694;10.160;2023-04-06T05:42:39;19.27;;;15.33;;
2474;SDS011;1248;48.694;10.160;2023-04-06T05:45:08;27.00;;;16.40;;
2474;SDS011;1248;48.694;10.160;2023-04-06T05:47:42;25.87;;;15.30;;
2474;SDS011;1248;48.694;10.160;2023-04-06T05:50:09;20.00;;;14.13;;
2474;SDS011;1248;48.694;10.160;2023-04-06T05:52:36;29.00;;;16.70;;
2474;SDS011;1248;48.694;10.160;2023-04-06T05:55:04;16.07;;;14.23;;
2474;SDS011;1248;48.694;10.160;2023-04-06T05:57:32;21.50;;;16.13;;
2474;SDS011;1248;48.694;10.160;2023-04-06T05:59:59;19.70;;;13.20;;
2474;SDS011;1248;48.694;10.160;2023-04-06T06:02:26;26.37;;;15.20;;
2474;SDS011;1248;48.694;10.160;2023-04-06T06:04:53;23.53;;;14.50;;
2474;SDS011;1248;48.694;10.160;2023-04-06T06:07:21;23.73;;;15.30;;
2474;SDS011;1248;48.694;10.160;2023-04-06T06:09:48;21.53;;;13.50;;
2474;SDS011;1248;48.694;10.160;2023-04-06T06:12:15;16.90;;;13.67;;
2474;SDS011;1248;48.694;10.160;2023-04-06T06:14:43;21.03;;;13.90;;
2474;SDS011;1248;48.694;10.160;2023-04-06T06:17:10;22.03;;;16.27;;
2474;SDS011;1248;48.694;10.160;2023-04-06T06:19:37;19.57;;;14.70;;
2474;SDS011;1248;48.694;10.160;2023-04-06T06:22:04;25.37;;;15.50;;
2474;SDS011;1248;48.694;10.160;2023-04-06T06:24:31;18.47;;;14.20;;
2474;SDS011;1248;48.694;10.160;2023-04-06T06:26:58;21.67;;;15.10;;
2474;SDS011;1248;48.694;10.160;2023-04-06T06:29:26;22.30;;;14.10;;
2474;SDS011;1248;48.694;10.160;2023-04-06T06:31:54;27.50;;;15.57;;
2474;SDS011;1248;48.694;10.160;2023-04-06T06:34:21;23.63;;;14.33;;
2474;SDS011;1248;48.694;10.160;2023-04-06T06:36:48;22.63;;;14.97;;
2474;SDS011;1248;48.694;10.160;2023-04-06T06:39:15;19.90;;;15.20;;
2474;SDS011;1248;48.694;10.160;2023-04-06T06:41:42;27.67;;;16.03;;
2474;SDS011;1248;48.694;10.160;2023-04-06T06:44:09;23.37;;;13.80;;
2474;SDS011;1248;48.694;10.160;2023-04-06T06:46:36;20.63;;;14.70;;
2474;SDS011;1248;48.694;10.160;2023-04-06T06:49:04;26.63;;;14.70;;
2474;SDS011;1248;48.694;10.160;2023-04-06T06:51:31;18.00;;;14.47;;
2474;SDS011;1248;48.694;10.160;2023-04-06T06:53:58;20.23;;;13.93;;
2474;SDS011;1248;48.694;10.160;2023-04-06T06:56:25;22.07;;;14.80;;
2474;SDS011;1248;48.694;10.160;2023-04-06T06:58:53;18.73;;;15.60;;
2474;SDS011;1248;48.694;10.160;2023-04-06T07:01:20;18.37;;;13.17;;
2474;SDS011;1248;48.694;10.160;2023-04-06T07:03:47;19.50;;;14.43;;
2474;SDS011;1248;48.694;10.160;2023-04-06T07:06:15;24.37;;;14.60;;
2474;SDS011;1248;48.694;10.160;2023-04-06T07:08:42;22.67;;;15.70;;
2474;SDS011;1248;48.694;10.160;2023-04-06T07:11:10;20.70;;;14.77;;
2474;SDS011;1248;48.694;10.160;2023-04-06T07:13:37;17.10;;;14.80;;
2474;SDS011;1248;48.694;10.160;2023-04-06T07:16:04;20.53;;;14.87;;
2474;SDS011;1248;48.694;10.160;2023-04-06T07:18:31;21.43;;;15.40;;
2474;SDS011;1248;48.694;10.160;2023-04-06T07:20:58;18.07;;;16.20;;
2474;SDS011;1248;48.694;10.160;2023-04-06T07:23:26;18.93;;;14.53;;
2474;SDS011;1248;48.694;10.160;2023-04-06T07:25:53;22.23;;;16.57;;
2474;SDS011;1248;48.694;10.160;2023-04-06T07:28:20;22.10;;;15.47;;
2474;SDS011;1248;48.694;10.160;2023-04-06T07:30:47;21.83;;;14.90;;
2474;SDS011;1248;48.694;10.160;2023-04-06T07:33:14;17.07;;;15.30;;
2474;SDS011;1248;48.694;10.160;2023-04-06T07:35:41;18.73;;;15.33;;
2474;SDS011;1248;48.694;10.160;2023-04-06T07:38:08;21.97;;;16.53;;
2474;SDS011;1248;48.694;10.160;2023-04-06T07:40:37;22.73;;;15.23;;
2474;SDS011;1248;48.694;10.160;2023-04-06T07:43:04;19.27;;;14.30;;
2474;SDS011;1248;48.694;10.160;2023-04-06T07:45:31;18.50;;;14.60;;
2474;SDS011;1248;48.694;10.160;2023-04-06T07:47:58;22.67;;;15.23;;
2474;SDS011;1248;48.694;10.160;2023-04-06T07:50:25;18.40;;;14.40;;
2474;SDS011;1248;48.694;10.160;2023-04-06T07:52:52;21.20;;;16.00;;
2474;SDS011;1248;48.694;10.160;2023-04-06T07:55:19;21.87;;;15.53;;
2474;SDS011;1248;48.694;10.160;2023-04-06T07:57:47;29.13;;;16.30;;
2474;SDS011;1248;48.694;10.160;2023-04-06T08:00:14;18.87;;;15.00;;
2474;SDS011;1248;48.694;10.160;2023-04-06T08:02:42;20.17;;;15.10;;
2474;SDS011;1248;48.694;10.160;2023-04-06T08:05:09;16.57;;;14.37;;
2474;SDS011;1248;48.694;10.160;2023-04-06T08:07:36;22.60;;;14.90;;
2474;SDS011;1248;48.694;10.160;2023-04-06T08:10:04;21.50;;;16.00;;
2474;SDS011;1248;48.694;10.160;2023-04-06T08:12:31;19.87;;;15.57;;
2474;SDS011;1248;48.694;10.160;2023-04-06T08:15:00;16.90;;;13.80;;
2474;SDS011;1248;48.694;10.160;2023-04-06T08:17:28;22.27;;;15.27;;
2474;SDS011;1248;48.694;10.160;2023-04-06T08:19:56;16.37;;;13.50;;
2474;SDS011;1248;48.694;10.160;2023-04-06T08:22:23;16.60;;;13.80;;
2474;SDS011;1248;48.694;10.160;2023-04-06T08:24:50;19.77;;;13.00;;
2474;SDS011;1248;48.694;10.160;2023-04-06T08:27:17;16.77;;;14.17;;
2474;SDS011;1248;48.694;10.160;2023-04-06T08:29:44;19.40;;;14.87;;
2474;SDS011;1248;48.694;10.160;2023-04-06T08:32:12;22.20;;;14.23;;
2474;SDS011;1248;48.694;10.160;2023-04-06T08:34:39;17.80;;;12.97;;
2474;SDS011;1248;48.694;10.160;2023-04-06T08:37:06;17.43;;;12.13;;
2474;SDS011;1248;48.694;10.160;2023-04-06T08:39:33;20.80;;;12.43;;
2474;SDS011;1248;48.694;10.160;2023-04-06T08:42:00;18.50;;;13.87;;
2474;SDS011;1248;48.694;10.160;2023-04-06T08:44:28;20.33;;;13.53;;
2474;SDS011;1248;48.694;10.160;2023-04-06T08:46:55;15.40;;;11.47;;
2474;SDS011;1248;48.694;10.160;2023-04-06T08:49:24;15.03;;;11.87;;
2474;SDS011;1248;48.694;10.160;2023-04-06T08:51:51;18.63;;;12.53;;
2474;SDS011;1248;48.694;10.160;2023-04-06T08:54:18;20.20;;;11.53;;
2474;SDS011;1248;48.694;10.160;2023-04-06T08:56:45;18.13;;;13.00;;
2474;SDS011;1248;48.694;10.160;2023-04-06T08:59:13;16.60;;;11.53;;
2474;SDS011;1248;48.694;10.160;2023-04-06T09:01:40;15.53;;;11.83;;
2474;SDS011;1248;48.694;10.160;2023-04-06T09:04:09;18.80;;;13.00;;
2474;SDS011;1248;48.694;10.160;2023-04-06T09:06:38;15.63;;;10.50;;
2474;SDS011;1248;48.694;10.160;2023-04-06T09:09:06;16.50;;;10.90;;
2474;SDS011;1248;48.694;10.160;2023-04-06T09:11:43;13.50;;;10.10;;
2474;SDS011;1248;48.694;10.160;2023-04-06T09:14:11;19.43;;;10.30;;
2474;SDS011;1248;48.694;10.160;2023-04-06T09:16:38;17.73;;;11.97;;
2474;SDS011;1248;48.694;10.160;2023-04-06T09:19:06;14.00;;;10.93;;
2474;SDS011;1248;48.694;10.160;2023-04-06T09:21:33;15.90;;;11.00;;
2474;SDS011;1248;48.694;10.160;2023-04-06T09:24:02;16.93;;;11.10;;
2474;SDS011;1248;48.694;10.160;2023-04-06T09:26:30;15.60;;;11.13;;
2474;SDS011;1248;48.694;10.160;2023-04-06T09:28:59;14.60;;;10.37;;
2474;SDS011;1248;48.694;10.160;2023-04-06T09:31:27;16.97;;;11.27;;
2474;SDS011;1248;48.694;10.160;2023-04-06T09:33:56;17.47;;;10.57;;
2474;SDS011;1248;48.694;10.160;2023-04-06T09:36:30;14.97;;;10.80;;
2474;SDS011;1248;48.694;10.160;2023-04-06T09:38:58;15.77;;;10.67;;
2474;SDS011;1248;48.694;10.160;2023-04-06T09:41:27;14.63;;;10.57;;
2474;SDS011;1248;48.694;10.160;2023-04-06T09:44:02;12.43;;;9.73;;
2474;SDS011;1248;48.694;10.160;2023-04-06T09:46:30;11.40;;;9.10;;
2474;SDS011;1248;48.694;10.160;2023-04-06T09:48:58;15.80;;;10.57;;
2474;SDS011;1248;48.694;10.160;2023-04-06T09:51:26;16.60;;;8.93;;
2474;SDS011;1248;48.694;10.160;2023-04-06T09:53:57;12.90;;;9.97;;
2474;SDS011;1248;48.694;10.160;2023-04-06T09:56:28;14.43;;;10.67;;
2474;SDS011;1248;48.694;10.160;2023-04-06T09:59:09;15.30;;;10.30;;
2474;SDS011;1248;48.694;10.160;2023-04-06T10:01:40;14.00;;;10.50;;
2474;SDS011;1248;48.694;10.160;2023-04-06T10:04:13;14.50;;;10.20;;
2474;SDS011;1248;48.694;10.160;2023-04-06T10:06:48;14.27;;;9.53;;
2474;SDS011;1248;48.694;10.160;2023-04-06T10:09:18;14.27;;;9.53;;
2474;SDS011;1248;48.694;10.160;2023-04-06T10:11:49;11.07;;;9.27;;
2474;SDS011;1248;48.694;10.160;2023-04-06T10:14:16;13.33;;;9.20;;
2474;SDS011;1248;48.694;10.160;2023-04-06T10:16:44;14.90;;;9.97;;
2474;SDS011;1248;48.694;10.160;2023-04-06T10:19:12;11.83;;;8.97;;
2474;SDS011;1248;48.694;10.160;2023-04-06T10:21:40;12.70;;;9.50;;
2474;SDS011;1248;48.694;10.160;2023-04-06T10:24:10;11.03;;;8.33;;
2474;SDS011;1248;48.694;10.160;2023-04-06T10:26:37;13.87;;;9.30;;
2474;SDS011;1248;48.694;10.160;2023-04-06T10:29:06;12.80;;;9.00;;
2474;SDS011;1248;48.694;10.160;2023-04-06T10:31:39;14.00;;;10.00;;
2474;SDS011;1248;48.694;10.160;2023-04-06T10:34:06;12.63;;;10.10;;
2474;SDS011;1248;48.694;10.160;2023-04-06T10:36:33;14.23;;;10.43;;
2474;SDS011;1248;48.694;10.160;2023-04-06T10:39:02;15.80;;;10.63;;
2474;SDS011;1248;48.694;10.160;2023-04-06T10:41:33;12.20;;;10.77;;
2474;SDS011;1248;48.694;10.160;2023-04-06T10:44:00;12.00;;;10.27;;
2474;SDS011;1248;48.694;10.160;2023-04-06T10:46:30;13.60;;;10.10;;
2474;SDS011;1248;48.694;10.160;2023-04-06T10:48:58;14.60;;;11.23;;
2474;SDS011;1248;48.694;10.160;2023-04-06T10:51:37;15.30;;;11.20;;
2474;SDS011;1248;48.694;10.160;2023-04-06T10:54:05;11.50;;;9.60;;
2474;SDS011;1248;48.694;10.160;2023-04-06T10:56:33;13.20;;;9.80;;
2474;SDS011;1248;48.694;10.160;2023-04-06T10:59:05;14.93;;;9.93;;
2474;SDS011;1248;48.694;10.160;2023-04-06T11:01:33;15.63;;;10.67;;
2474;SDS011;1248;48.694;10.160;2023-04-06T11:04:00;17.67;;;12.17;;
2474;SDS011;1248;48.694;10.160;2023-04-06T11:06:29;11.90;;;10.10;;
2474;SDS011;1248;48.694;10.160;2023-04-06T11:08:58;12.13;;;9.83;;
2474;SDS011;1248;48.694;10.160;2023-04-06T11:11:25;12.97;;;10.70;;
2474;SDS011;1248;48.694;10.160;2023-04-06T11:13:53;11.47;;;9.57;;
2474;SDS011;1248;48.694;10.160;2023-04-06T11:16:22;15.73;;;10.27;;
2474;SDS011;1248;48.694;10.160;2023-04-06T11:18:52;11.60;;;10.33;;
2474;SDS011;1248;48.694;10.160;2023-04-06T11:21:29;15.97;;;9.83;;
2474;SDS011;1248;48.694;10.160;2023-04-06T11:24:08;12.57;;;9.20;;
2474;SDS011;1248;48.694;10.160;2023-04-06T11:26:36;11.20;;;10.00;;
2474;SDS011;1248;48.694;10.160;2023-04-06T11:29:04;13.17;;;9.37;;
2474;SDS011;1248;48.694;10.160;2023-04-06T11:31:36;11.00;;;9.67;;
2474;SDS011;1248;48.694;10.160;2023-04-06T11:34:09;18.47;;;9.73;;
2474;SDS011;1248;48.694;10.160;2023-04-06T11:36:39;12.03;;;10.00;;
2474;SDS011;1248;48.694;10.160;2023-04-06T11:39:08;14.20;;;10.90;;
2474;SDS011;1248;48.694;10.160;2023-04-06T11:41:35;12.97;;;10.70;;
2474;SDS011;1248;48.694;10.160;2023-04-06T11:44:02;13.40;;;10.30;;
2474;SDS011;1248;48.694;10.160;2023-04-06T11:46:30;13.97;;;10.10;;
2474;SDS011;1248;48.694;10.160;2023-04-06T11:48:57;16.30;;;10.40;;
2474;SDS011;1248;48.694;10.160;2023-04-06T11:51:26;12.47;;;9.77;;
2474;SDS011;1248;48.694;10.160;2023-04-06T11:53:54;13.27;;;10.60;;
2474;SDS011;1248;48.694;10.160;2023-04-06T11:56:24;15.27;;;11.00;;
2474;SDS011;1248;48.694;10.160;2023-04-06T11:58:54;11.50;;;9.57;;
2474;SDS011;1248;48.694;10.160;2023-04-06T12:01:21;12.40;;;10.70;;
2474;SDS011;1248;48.694;10.160;2023-04-06T12:03:48;13.60;;;10.77;;
2474;SDS011;1248;48.694;10.160;2023-04-06T12:06:16;11.80;;;9.70;;
2474;SDS011;1248;48.694;10.160;2023-04-06T12:08:45;11.60;;;9.80;;
2474;SDS011;1248;48.694;10.160;2023-04-06T12:11:12;12.07;;;9.20;;
2474;SDS011;1248;48.694;10.160;2023-04-06T12:13:39;14.33;;;10.93;;
2474;SDS011;1248;48.694;10.160;2023-04-06T12:16:06;13.00;;;11.60;;
2474;SDS011;1248;48.694;10.160;2023-04-06T12:18:33;13.40;;;9.20;;
2474;SDS011;1248;48.694;10.160;2023-04-06T12:21:00;13.97;;;9.93;;
2474;SDS011;1248;48.694;10.160;2023-04-06T12:23:27;18.13;;;11.70;;
2474;SDS011;1248;48.694;10.160;2023-04-06T12:25:55;16.67;;;11.80;;
2474;SDS011;1248;48.694;10.160;2023-04-06T12:28:23;14.40;;;10.73;;
2474;SDS011;1248;48.694;10.160;2023-04-06T12:30:52;12.83;;;10.50;;
2474;SDS011;1248;48.694;10.160;2023-04-06T12:33:19;12.53;;;11.23;;
2474;SDS011;1248;48.694;10.160;2023-04-06T12:35:46;12.20;;;10.70;;
2474;SDS011;1248;48.694;10.160;2023-04-06T12:38:13;12.60;;;10.70;;
2474;SDS011;1248;48.694;10.160;2023-04-06T12:40:41;15.07;;;10.63;;
2474;SDS011;1248;48.694;10.160;2023-04-06T12:43:10;14.60;;;10.67;;
2474;SDS011;1248;48.694;10.160;2023-04-06T12:45:38;13.97;;;11.40;;
2474;SDS011;1248;48.694;10.160;2023-04-06T12:48:06;12.00;;;10.83;;
2474;SDS011;1248;48.694;10.160;2023-04-06T12:50:33;16.60;;;10.97;;
2474;SDS011;1248;48.694;10.160;2023-04-06T12:53:00;12.23;;;10.37;;
2474;SDS011;1248;48.694;10.160;2023-04-06T12:55:29;15.00;;;11.27;;
2474;SDS011;1248;48.694;10.160;2023-04-06T12:57:56;13.73;;;11.60;;
2474;SDS011;1248;48.694;10.160;2023-04-06T13:00:25;11.70;;;10.37;;
2474;SDS011;1248;48.694;10.160;2023-04-06T13:02:52;17.70;;;10.03;;
2474;SDS011;1248;48.694;10.160;2023-04-06T13:05:19;16.30;;;10.97;;
2474;SDS011;1248;48.694;10.160;2023-04-06T13:07:46;10.33;;;9.23;;
2474;SDS011;1248;48.694;10.160;2023-04-06T13:10:13;12.27;;;9.43;;
2474;SDS011;1248;48.694;10.160;2023-04-06T13:12:40;13.90;;;9.83;;
2474;SDS011;1248;48.694;10.160;2023-04-06T13:15:08;11.20;;;10.07;;
2474;SDS011;1248;48.694;10.160;2023-04-06T13:17:37;12.47;;;8.97;;
2474;SDS011;1248;48.694;10.160;2023-04-06T13:20:04;11.27;;;10.07;;
2474;SDS011;1248;48.694;10.160;2023-04-06T13:22:32;11.17;;;10.00;;
2474;SDS011;1248;48.694;10.160;2023-04-06T13:24:59;12.07;;;10.30;;
2474;SDS011;1248;48.694;10.160;2023-04-06T13:27:26;10.10;;;9.10;;
2474;SDS011;1248;48.694;10.160;2023-04-06T13:29:54;13.90;;;10.20;;
2474;SDS011;1248;48.694;10.160;2023-04-06T13:32:22;12.00;;;9.63;;
2474;SDS011;1248;48.694;10.160;2023-04-06T13:34:50;11.03;;;9.80;;
2474;SDS011;1248;48.694;10.160;2023-04-06T13:37:21;13.30;;;10.23;;
2474;SDS011;1248;48.694;10.160;2023-04-06T13:39:48;11.90;;;10.50;;
2474;SDS011;1248;48.694;10.160;2023-04-06T13:42:15;14.90;;;10.27;;
2474;SDS011;1248;48.694;10.160;2023-04-06T13:44:42;10.20;;;9.20;;
2474;SDS011;1248;48.694;10.160;2023-04-06T13:47:12;12.17;;;9.73;;
2474;SDS011;1248;48.694;10.160;2023-04-06T13:49:39;10.70;;;9.20;;
2474;SDS011;1248;48.694;10.160;2023-04-06T13:52:07;12.27;;;10.10;;
2474;SDS011;1248;48.694;10.160;2023-04-06T13:54:35;13.27;;;11.10;;
2474;SDS011;1248;48.694;10.160;2023-04-06T13:57:02;13.67;;;10.00;;
2474;SDS011;1248;48.694;10.160;2023-04-06T13:59:33;11.67;;;9.57;;
2474;SDS011;1248;48.694;10.160;2023-04-06T14:02:00;12.10;;;10.80;;
2474;SDS011;1248;48.694;10.160;2023-04-06T14:04:28;11.40;;;10.20;;
2474;SDS011;1248;48.694;10.160;2023-04-06T14:06:55;10.40;;;9.40;;
2474;SDS011;1248;48.694;10.160;2023-04-06T14:09:23;12.47;;;8.97;;
2474;SDS011;1248;48.694;10.160;2023-04-06T14:11:50;10.97;;;9.40;;
2474;SDS011;1248;48.694;10.160;2023-04-06T14:14:17;9.27;;;8.30;;
2474;SDS011;1248;48.694;10.160;2023-04-06T14:16:45;12.13;;;8.67;;
2474;SDS011;1248;48.694;10.160;2023-04-06T14:19:12;10.63;;;9.50;;
2474;SDS011;1248;48.694;10.160;2023-04-06T14:21:43;12.80;;;10.27;;
2474;SDS011;1248;48.694;10.160;2023-04-06T14:24:10;10.17;;;9.10;;
2474;SDS011;1248;48.694;10.160;2023-04-06T14:26:39;9.83;;;8.80;;
2474;SDS011;1248;48.694;10.160;2023-04-06T14:29:07;14.33;;;10.13;;
2474;SDS011;1248;48.694;10.160;2023-04-06T14:31:35;11.43;;;9.73;;
2474;SDS011;1248;48.694;10.160;2023-04-06T14:34:02;9.37;;;8.43;;
2474;SDS011;1248;48.694;10.160;2023-04-06T14:36:30;15.13;;;10.30;;
2474;SDS011;1248;48.694;10.160;2023-04-06T14:39:02;10.07;;;9.07;;